sensor_id;sensor_type;location;lat;lon;timestamp;pressure;altitude;pressure_sealevel;temperature;humidity
35129;BME280;21301;43.626;10.580;2024-03-02T00:00:31;100515.63;;;11.46;100.00
35129;BME280;21301;43.626;10.580;2024-03-02T00:02:57;100509.44;;;11.47;100.00
35129;BME280;21301;43.626;10.580;2024-03-02T00:05:23;100518.47;;;11.55;100.00
35129;BME280;21301;43.626;10.580;2024-03-02T00:07:55;100506.84;;;11.57;100.00
35129;BME280;21301;43.626;10.580;2024-03-02T00:10:24;100515.06;;;11.64;100.00
35129;BME280;21301;43.626;10.580;2024-03-02T00:12:54;100508.97;;;11.63;100.00
35129;BME280;21301;43.626;10.580;2024-03-02T00:18:11;100511.75;;;11.62;100.00
35129;BME280;21301;43.626;10.580;2024-03-02T00:20:40;100512.19;;;11.67;100.00
35129;BME280;21301;43.626;10.580;2024-03-02T00:23:08;100520.22;;;11.65;100.00
35129;BME280;21301;43.626;10.580;2024-03-02T00:25:45;100519.75;;;11.60;100.00
35129;BME280;21301;43.626;10.580;2024-03-02T00:28:30;100529.59;;;11.58;100.00
35129;BME280;21301;43.626;10.580;2024-03-02T00:31:06;100531.84;;;11.63;100.00
35129;BME280;21301;43.626;10.580;2024-03-02T00:33:41;100522.97;;;11.64;100.00
35129;BME280;21301;43.626;10.580;2024-03-02T00:36:08;100529.09;;;11.64;100.00
35129;BME280;21301;43.626;10.580;2024-03-02T00:38:34;100534.91;;;11.68;100.00
35129;BME280;21301;43.626;10.580;2024-03-02T00:41:05;100536.13;;;11.64;100.00
35129;BME280;21301;43.626;10.580;2024-03-02T00:43:45;100533.38;;;11.65;100.00
35129;BME280;21301;43.626;10.580;2024-03-02T00:46:16;100542.00;;;11.67;100.00
35129;BME280;21301;43.626;10.580;2024-03-02T00:48:50;100546.94;;;11.61;100.00
35129;BME280;21301;43.626;10.580;2024-03-02T00:51:17;100542.94;;;11.66;100.00
35129;BME280;21301;43.626;10.580;2024-03-02T00:53:42;100543.09;;;11.65;100.00
35129;BME280;21301;43.626;10.580;2024-03-02T00:56:10;100543.47;;;11.60;100.00
35129;BME280;21301;43.626;10.580;2024-03-02T00:58:37;100541.78;;;11.59;100.00
35129;BME280;21301;43.626;10.580;2024-03-02T01:01:03;100560.09;;;11.61;100.00
35129;BME280;21301;43.626;10.580;2024-03-02T01:03:31;100554.81;;;11.61;100.00
35129;BME280;21301;43.626;10.580;2024-03-02T01:05:57;100559.25;;;11.60;100.00
35129;BME280;21301;43.626;10.580;2024-03-02T01:08:24;100561.31;;;11.57;100.00
35129;BME280;21301;43.626;10.580;2024-03-02T01:10:49;100560.69;;;11.64;100.00
35129;BME280;21301;43.626;10.580;2024-03-02T01:13:15;100561.97;;;11.70;100.00
35129;BME280;21301;43.626;10.580;2024-03-02T01:15:40;100564.47;;;11.71;100.00
35129;BME280;21301;43.626;10.580;2024-03-02T01:18:06;100561.00;;;11.71;100.00
35129;BME280;21301;43.626;10.580;2024-03-02T01:20:32;100558.63;;;11.68;100.00
35129;BME280;21301;43.626;10.580;2024-03-02T01:22:57;100560.88;;;11.72;100.00
35129;BME280;21301;43.626;10.580;2024-03-02T01:25:23;100563.25;;;11.76;100.00
35129;BME280;21301;43.626;10.580;2024-03-02T01:27:48;100562.75;;;11.82;100.00
35129;BME280;21301;43.626;10.580;2024-03-02T01:30:14;100570.50;;;11.83;100.00
35129;BME280;21301;43.626;10.580;2024-03-02T01:32:41;100570.31;;;11.75;100.00
35129;BME280;21301;43.626;10.580;2024-03-02T01:35:06;100567.13;;;11.71;100.00
35129;BME280;21301;43.626;10.580;2024-03-02T01:37:33;100574.66;;;11.76;100.00
35129;BME280;21301;43.626;10.580;2024-03-02T01:39:58;100567.03;;;11.62;100.00
35129;BME280;21301;43.626;10.580;2024-03-02T01:42:26;100582.44;;;11.66;100.00
35129;BME280;21301;43.626;10.580;2024-03-02T01:44:53;100574.31;;;11.90;100.00
35129;BME280;21301;43.626;10.580;2024-03-02T01:47:18;100570.75;;;11.91;100.00
35129;BME280;21301;43.626;10.580;2024-03-02T01:49:44;100582.66;;;11.75;100.00
35129;BME280;21301;43.626;10.580;2024-03-02T01:52:09;100581.03;;;11.83;100.00
35129;BME280;21301;43.626;10.580;2024-03-02T01:54:38;100574.66;;;11.76;100.00
35129;BME280;21301;43.626;10.580;2024-03-02T01:57:04;100584.66;;;11.82;100.00
35129;BME280;21301;43.626;10.580;2024-03-02T01:59:29;100585.63;;;11.81;100.00
35129;BME280;21301;43.626;10.580;2024-03-02T02:01:55;100586.13;;;11.75;100.00
35129;BME280;21301;43.626;10.580;2024-03-02T02:04:21;100585.63;;;11.81;100.00
35129;BME280;21301;43.626;10.580;2024-03-02T02:06:52;100582.31;;;12.00;100.00
35129;BME280;21301;43.626;10.580;2024-03-02T02:09:18;100581.56;;;11.88;100.00
35129;BME280;21301;43.626;10.580;2024-03-02T02:11:45;100583.66;;;11.94;100.00
35129;BME280;21301;43.626;10.580;2024-03-02T02:14:10;100579.66;;;12.21;100.00
35129;BME280;21301;43.626;10.580;2024-03-02T02:16:37;100576.81;;;12.34;100.00
35129;BME280;21301;43.626;10.580;2024-03-02T02:19:03;100582.13;;;12.44;100.00
35129;BME280;21301;43.626;10.580;2024-03-02T02:21:29;100580.06;;;12.47;100.00
35129;BME280;21301;43.626;10.580;2024-03-02T02:23:57;100588.31;;;12.33;100.00
35129;BME280;21301;43.626;10.580;2024-03-02T02:26:22;100593.03;;;11.87;100.00
35129;BME280;21301;43.626;10.580;2024-03-02T02:28:50;100590.34;;;11.66;100.00
35129;BME280;21301;43.626;10.580;2024-03-02T02:31:15;100589.13;;;11.70;100.00
35129;BME280;21301;43.626;10.580;2024-03-02T02:33:42;100575.69;;;11.73;100.00
35129;BME280;21301;43.626;10.580;2024-03-02T02:36:08;100580.69;;;11.88;100.00
35129;BME280;21301;43.626;10.580;2024-03-02T02:38:44;100582.84;;;11.83;100.00
35129;BME280;21301;43.626;10.580;2024-03-02T02:41:11;100574.94;;;11.83;100.00
35129;BME280;21301;43.626;10.580;2024-03-02T02:43:36;100581.56;;;11.77;100.00
35129;BME280;21301;43.626;10.580;2024-03-02T02:46:02;100583.38;;;11.77;100.00
35129;BME280;21301;43.626;10.580;2024-03-02T02:48:27;100580.84;;;11.75;100.00
35129;BME280;21301;43.626;10.580;2024-03-02T02:50:53;100577.56;;;11.83;100.00
35129;BME280;21301;43.626;10.580;2024-03-02T02:53:19;100583.56;;;11.85;100.00
35129;BME280;21301;43.626;10.580;2024-03-02T02:55:44;100576.00;;;11.91;100.00
35129;BME280;21301;43.626;10.580;2024-03-02T02:58:10;100583.00;;;11.81;100.00
35129;BME280;21301;43.626;10.580;2024-03-02T03:00:35;100585.22;;;11.65;100.00
35129;BME280;21301;43.626;10.580;2024-03-02T03:03:02;100589.28;;;11.69;100.00
35129;BME280;21301;43.626;10.580;2024-03-02T03:05:27;100584.19;;;11.77;100.00
35129;BME280;21301;43.626;10.580;2024-03-02T03:07:53;100589.56;;;11.87;100.00
35129;BME280;21301;43.626;10.580;2024-03-02T03:10:19;100589.75;;;11.95;100.00
35129;BME280;21301;43.626;10.580;2024-03-02T03:12:47;100585.06;;;11.99;100.00
35129;BME280;21301;43.626;10.580;2024-03-02T03:15:13;100587.31;;;12.03;100.00
35129;BME280;21301;43.626;10.580;2024-03-02T03:17:39;100593.03;;;11.87;100.00
35129;BME280;21301;43.626;10.580;2024-03-02T03:20:06;100590.22;;;11.68;100.00
35129;BME280;21301;43.626;10.580;2024-03-02T03:22:35;100586.44;;;11.61;100.00
35129;BME280;21301;43.626;10.580;2024-03-02T03:25:01;100584.69;;;11.71;100.00
35129;BME280;21301;43.626;10.580;2024-03-02T03:27:27;100592.19;;;11.87;100.00
35129;BME280;21301;43.626;10.580;2024-03-02T03:29:53;100602.47;;;11.90;100.00
35129;BME280;21301;43.626;10.580;2024-03-02T03:32:19;100593.25;;;11.96;100.00
35129;BME280;21301;43.626;10.580;2024-03-02T03:34:45;100596.56;;;12.19;100.00
35129;BME280;21301;43.626;10.580;2024-03-02T03:37:11;100593.16;;;12.28;100.00
35129;BME280;21301;43.626;10.580;2024-03-02T03:39:38;100599.25;;;12.28;100.00
35129;BME280;21301;43.626;10.580;2024-03-02T03:42:04;100594.13;;;12.27;100.00
35129;BME280;21301;43.626;10.580;2024-03-02T03:44:29;100601.41;;;12.13;100.00
35129;BME280;21301;43.626;10.580;2024-03-02T03:46:55;100604.09;;;12.23;100.00
35129;BME280;21301;43.626;10.580;2024-03-02T03:49:20;100604.72;;;12.36;100.00
35129;BME280;21301;43.626;10.580;2024-03-02T03:51:46;100610.88;;;12.47;100.00
35129;BME280;21301;43.626;10.580;2024-03-02T03:54:12;100609.78;;;12.49;100.00
35129;BME280;21301;43.626;10.580;2024-03-02T03:56:39;100610.38;;;12.32;100.00
35129;BME280;21301;43.626;10.580;2024-03-02T03:59:04;100608.00;;;12.29;100.00
35129;BME280;21301;43.626;10.580;2024-03-02T04:01:30;100611.28;;;12.21;100.00
35129;BME280;21301;43.626;10.580;2024-03-02T04:03:57;100614.25;;;12.07;100.00
35129;BME280;21301;43.626;10.580;2024-03-02T04:06:23;100613.78;;;12.02;100.00
35129;BME280;21301;43.626;10.580;2024-03-02T04:08:50;100609.94;;;12.06;100.00
35129;BME280;21301;43.626;10.580;2024-03-02T04:11:16;100605.63;;;11.84;100.00
35129;BME280;21301;43.626;10.580;2024-03-02T04:13:42;100609.94;;;11.73;100.00
35129;BME280;21301;43.626;10.580;2024-03-02T04:16:07;100616.94;;;11.63;100.00
35129;BME280;21301;43.626;10.580;2024-03-02T04:18:33;100614.81;;;11.57;100.00
35129;BME280;21301;43.626;10.580;2024-03-02T04:20:58;100625.09;;;11.60;100.00
35129;BME280;21301;43.626;10.580;2024-03-02T04:23:27;100622.44;;;11.71;100.00
35129;BME280;21301;43.626;10.580;2024-03-02T04:25:53;100618.78;;;11.84;100.00
35129;BME280;21301;43.626;10.580;2024-03-02T04:28:18;100624.00;;;11.95;100.00
35129;BME280;21301;43.626;10.580;2024-03-02T04:30:44;100635.16;;;11.99;100.00
35129;BME280;21301;43.626;10.580;2024-03-02T04:33:09;100637.06;;;11.97;100.00
35129;BME280;21301;43.626;10.580;2024-03-02T04:35:36;100631.66;;;12.19;100.00
35129;BME280;21301;43.626;10.580;2024-03-02T04:38:02;100629.69;;;12.32;100.00
35129;BME280;21301;43.626;10.580;2024-03-02T04:40:27;100634.63;;;12.26;100.00
35129;BME280;21301;43.626;10.580;2024-03-02T04:42:53;100631.78;;;12.39;100.00
35129;BME280;21301;43.626;10.580;2024-03-02T04:45:20;100636.03;;;12.30;100.00
35129;BME280;21301;43.626;10.580;2024-03-02T04:47:46;100641.25;;;12.41;100.00
35129;BME280;21301;43.626;10.580;2024-03-02T04:50:11;100640.00;;;12.45;100.00
35129;BME280;21301;43.626;10.580;2024-03-02T04:52:37;100645.16;;;12.47;100.00
35129;BME280;21301;43.626;10.580;2024-03-02T04:55:03;100648.50;;;12.49;100.00
35129;BME280;21301;43.626;10.580;2024-03-02T04:57:35;100647.41;;;12.51;100.00
35129;BME280;21301;43.626;10.580;2024-03-02T05:00:01;100643.34;;;12.47;100.00
35129;BME280;21301;43.626;10.580;2024-03-02T05:02:26;100655.50;;;12.39;100.00
35129;BME280;21301;43.626;10.580;2024-03-02T05:04:52;100653.28;;;12.34;100.00
35129;BME280;21301;43.626;10.580;2024-03-02T05:07:17;100659.38;;;12.34;100.00
35129;BME280;21301;43.626;10.580;2024-03-02T05:09:43;100663.56;;;12.37;100.00
35129;BME280;21301;43.626;10.580;2024-03-02T05:12:10;100666.06;;;12.39;100.00
35129;BME280;21301;43.626;10.580;2024-03-02T05:14:45;100652.44;;;12.33;100.00
35129;BME280;21301;43.626;10.580;2024-03-02T05:17:11;100658.69;;;12.32;100.00
35129;BME280;21301;43.626;10.580;2024-03-02T05:19:38;100662.28;;;12.31;100.00
35129;BME280;21301;43.626;10.580;2024-03-02T05:22:04;100668.91;;;12.26;100.00
35129;BME280;21301;43.626;10.580;2024-03-02T05:24:29;100671.81;;;12.23;100.00
35129;BME280;21301;43.626;10.580;2024-03-02T05:26:55;100674.44;;;12.23;100.00
35129;BME280;21301;43.626;10.580;2024-03-02T05:29:21;100679.13;;;12.19;100.00
35129;BME280;21301;43.626;10.580;2024-03-02T05:31:46;100673.00;;;12.19;100.00
35129;BME280;21301;43.626;10.580;2024-03-02T05:34:12;100671.22;;;11.98;100.00
35129;BME280;21301;43.626;10.580;2024-03-02T05:36:37;100675.63;;;11.98;100.00
35129;BME280;21301;43.626;10.580;2024-03-02T05:39:04;100685.72;;;11.92;100.00
35129;BME280;21301;43.626;10.580;2024-03-02T05:41:34;100688.50;;;11.80;100.00
35129;BME280;21301;43.626;10.580;2024-03-02T05:44:00;100687.78;;;11.89;100.00
35129;BME280;21301;43.626;10.580;2024-03-02T05:46:27;100692.41;;;11.97;100.00
35129;BME280;21301;43.626;10.580;2024-03-02T05:48:52;100693.03;;;11.89;100.00
35129;BME280;21301;43.626;10.580;2024-03-02T05:51:18;100702.50;;;11.80;100.00
35129;BME280;21301;43.626;10.580;2024-03-02T05:53:44;100701.66;;;11.80;100.00
35129;BME280;21301;43.626;10.580;2024-03-02T05:56:09;100708.66;;;11.69;100.00
35129;BME280;21301;43.626;10.580;2024-03-02T05:58:37;100713.97;;;11.36;100.00
35129;BME280;21301;43.626;10.580;2024-03-02T06:01:22;100714.34;;;11.20;100.00
35129;BME280;21301;43.626;10.580;2024-03-02T06:03:56;100717.72;;;10.99;100.00
35129;BME280;21301;43.626;10.580;2024-03-02T06:06:25;100715.66;;;10.80;100.00
35129;BME280;21301;43.626;10.580;2024-03-02T06:08:51;100720.34;;;10.88;100.00
35129;BME280;21301;43.626;10.580;2024-03-02T06:11:17;100721.28;;;10.98;100.00
35129;BME280;21301;43.626;10.580;2024-03-02T06:13:44;100729.78;;;11.24;100.00
35129;BME280;21301;43.626;10.580;2024-03-02T06:16:10;100739.59;;;11.00;100.00
35129;BME280;21301;43.626;10.580;2024-03-02T06:18:35;100744.84;;;10.88;100.00
35129;BME280;21301;43.626;10.580;2024-03-02T06:21:01;100750.94;;;10.78;100.00
35129;BME280;21301;43.626;10.580;2024-03-02T06:23:28;100747.00;;;10.83;100.00
35129;BME280;21301;43.626;10.580;2024-03-02T06:25:54;100745.88;;;10.75;100.00
35129;BME280;21301;43.626;10.580;2024-03-02T06:28:20;100746.13;;;10.72;100.00
35129;BME280;21301;43.626;10.580;2024-03-02T06:30:46;100751.00;;;10.54;100.00
35129;BME280;21301;43.626;10.580;2024-03-02T06:33:11;100757.25;;;10.64;100.00
35129;BME280;21301;43.626;10.580;2024-03-02T06:35:37;100751.88;;;10.65;100.00
35129;BME280;21301;43.626;10.580;2024-03-02T06:38:03;100764.56;;;10.83;100.00
35129;BME280;21301;43.626;10.580;2024-03-02T06:40:29;100763.94;;;10.68;100.00
35129;BME280;21301;43.626;10.580;2024-03-02T06:42:54;100772.94;;;10.88;100.00
35129;BME280;21301;43.626;10.580;2024-03-02T06:45:20;100774.50;;;11.13;100.00
35129;BME280;21301;43.626;10.580;2024-03-02T06:47:46;100775.00;;;11.29;100.00
35129;BME280;21301;43.626;10.580;2024-03-02T06:50:11;100771.03;;;11.35;100.00
35129;BME280;21301;43.626;10.580;2024-03-02T06:52:37;100773.69;;;11.46;100.00
35129;BME280;21301;43.626;10.580;2024-03-02T06:55:03;100772.13;;;11.55;100.00
35129;BME280;21301;43.626;10.580;2024-03-02T06:57:30;100777.25;;;11.68;100.00
35129;BME280;21301;43.626;10.580;2024-03-02T06:59:55;100783.75;;;11.52;100.00
35129;BME280;21301;43.626;10.580;2024-03-02T07:02:26;100786.97;;;11.34;100.00
35129;BME280;21301;43.626;10.580;2024-03-02T07:04:54;100791.38;;;11.44;100.00
35129;BME280;21301;43.626;10.580;2024-03-02T07:07:19;100794.63;;;11.48;100.00
35129;BME280;21301;43.626;10.580;2024-03-02T07:09:45;100795.31;;;11.61;100.00
35129;BME280;21301;43.626;10.580;2024-03-02T07:12:11;100794.13;;;11.77;100.00
35129;BME280;21301;43.626;10.580;2024-03-02T07:14:36;100799.63;;;11.73;100.00
35129;BME280;21301;43.626;10.580;2024-03-02T07:17:20;100806.34;;;11.89;100.00
35129;BME280;21301;43.626;10.580;2024-03-02T07:19:46;100807.88;;;12.03;100.00
35129;BME280;21301;43.626;10.580;2024-03-02T07:22:12;100813.25;;;12.45;100.00
35129;BME280;21301;43.626;10.580;2024-03-02T07:24:43;100809.81;;;12.65;100.00
35129;BME280;21301;43.626;10.580;2024-03-02T07:27:09;100817.91;;;12.73;100.00
35129;BME280;21301;43.626;10.580;2024-03-02T07:29:36;100815.59;;;12.80;100.00
35129;BME280;21301;43.626;10.580;2024-03-02T07:32:01;100820.94;;;12.90;100.00
35129;BME280;21301;43.626;10.580;2024-03-02T07:34:27;100826.78;;;12.72;100.00
35129;BME280;21301;43.626;10.580;2024-03-02T07:36:53;100822.41;;;12.62;100.00
35129;BME280;21301;43.626;10.580;2024-03-02T07:39:18;100830.72;;;12.46;100.00
35129;BME280;21301;43.626;10.580;2024-03-02T07:41:45;100838.16;;;12.52;100.00
35129;BME280;21301;43.626;10.580;2024-03-02T07:44:11;100838.59;;;12.57;100.00
35129;BME280;21301;43.626;10.580;2024-03-02T07:46:43;100844.84;;;12.56;100.00
35129;BME280;21301;43.626;10.580;2024-03-02T07:49:10;100842.84;;;12.48;100.00
35129;BME280;21301;43.626;10.580;2024-03-02T07:51:35;100844.59;;;12.59;100.00
35129;BME280;21301;43.626;10.580;2024-03-02T07:54:05;100852.66;;;12.78;100.00
35129;BME280;21301;43.626;10.580;2024-03-02T07:56:31;100855.94;;;12.71;100.00
35129;BME280;21301;43.626;10.580;2024-03-02T07:58:57;100852.00;;;13.07;100.00
35129;BME280;21301;43.626;10.580;2024-03-02T08:01:30;100856.84;;;13.84;100.00
35129;BME280;21301;43.626;10.580;2024-03-02T08:04:02;100858.41;;;13.97;100.00
35129;BME280;21301;43.626;10.580;2024-03-02T08:06:30;100860.50;;;13.93;100.00
35129;BME280;21301;43.626;10.580;2024-03-02T08:08:57;100858.53;;;14.65;100.00
35129;BME280;21301;43.626;10.580;2024-03-02T08:11:23;100854.25;;;15.68;100.00
35129;BME280;21301;43.626;10.580;2024-03-02T08:13:49;100861.53;;;16.39;100.00
35129;BME280;21301;43.626;10.580;2024-03-02T08:16:15;100852.13;;;16.63;100.00
35129;BME280;21301;43.626;10.580;2024-03-02T08:18:42;100855.09;;;16.42;100.00
35129;BME280;21301;43.626;10.580;2024-03-02T08:21:08;100860.41;;;15.96;100.00
35129;BME280;21301;43.626;10.580;2024-03-02T08:23:35;100866.84;;;15.09;100.00
35129;BME280;21301;43.626;10.580;2024-03-02T08:26:00;100864.34;;;15.54;100.00
35129;BME280;21301;43.626;10.580;2024-03-02T08:28:26;100863.66;;;15.52;100.00
35129;BME280;21301;43.626;10.580;2024-03-02T08:30:52;100875.13;;;15.43;100.00
35129;BME280;21301;43.626;10.580;2024-03-02T08:33:17;100870.56;;;15.63;100.00
35129;BME280;21301;43.626;10.580;2024-03-02T08:35:44;100872.09;;;16.49;100.00
35129;BME280;21301;43.626;10.580;2024-03-02T08:38:12;100873.94;;;17.36;100.00
35129;BME280;21301;43.626;10.580;2024-03-02T08:40:37;100877.00;;;18.26;100.00
35129;BME280;21301;43.626;10.580;2024-03-02T08:43:03;100876.47;;;18.15;100.00
35129;BME280;21301;43.626;10.580;2024-03-02T08:45:29;100881.56;;;17.31;100.00
35129;BME280;21301;43.626;10.580;2024-03-02T08:47:54;100873.78;;;17.12;100.00
35129;BME280;21301;43.626;10.580;2024-03-02T08:50:21;100879.28;;;17.10;100.00
35129;BME280;21301;43.626;10.580;2024-03-02T08:52:46;100879.88;;;16.32;100.00
35129;BME280;21301;43.626;10.580;2024-03-02T08:55:12;100881.16;;;16.64;100.00
35129;BME280;21301;43.626;10.580;2024-03-02T08:57:38;100886.03;;;16.51;100.00
35129;BME280;21301;43.626;10.580;2024-03-02T09:00:04;100885.53;;;16.83;100.00
35129;BME280;21301;43.626;10.580;2024-03-02T09:02:30;100890.06;;;16.73;100.00
35129;BME280;21301;43.626;10.580;2024-03-02T09:04:56;100887.19;;;16.48;100.00
35129;BME280;21301;43.626;10.580;2024-03-02T09:07:22;100884.75;;;17.35;100.00
35129;BME280;21301;43.626;10.580;2024-03-02T09:09:51;100891.00;;;17.52;100.00
35129;BME280;21301;43.626;10.580;2024-03-02T09:12:18;100893.50;;;16.83;100.00
35129;BME280;21301;43.626;10.580;2024-03-02T09:14:47;100900.97;;;16.34;100.00
35129;BME280;21301;43.626;10.580;2024-03-02T09:17:13;100899.97;;;16.35;100.00
35129;BME280;21301;43.626;10.580;2024-03-02T09:19:39;100904.69;;;16.59;100.00
35129;BME280;21301;43.626;10.580;2024-03-02T09:22:05;100900.00;;;16.07;100.00
35129;BME280;21301;43.626;10.580;2024-03-02T09:24:31;100904.91;;;15.74;100.00
35129;BME280;21301;43.626;10.580;2024-03-02T09:26:58;100902.13;;;15.76;100.00
35129;BME280;21301;43.626;10.580;2024-03-02T09:29:24;100910.69;;;15.41;100.00
35129;BME280;21301;43.626;10.580;2024-03-02T09:31:50;100910.19;;;15.18;100.00
35129;BME280;21301;43.626;10.580;2024-03-02T09:34:16;100920.22;;;15.14;100.00
35129;BME280;21301;43.626;10.580;2024-03-02T09:36:45;100924.56;;;14.96;100.00
35129;BME280;21301;43.626;10.580;2024-03-02T09:39:11;100924.13;;;15.20;100.00
35129;BME280;21301;43.626;10.580;2024-03-02T09:41:38;100924.19;;;15.57;100.00
35129;BME280;21301;43.626;10.580;2024-03-02T09:44:05;100918.31;;;15.53;100.00
35129;BME280;21301;43.626;10.580;2024-03-02T09:46:31;100930.09;;;15.88;100.00
35129;BME280;21301;43.626;10.580;2024-03-02T09:48:59;100926.84;;;15.57;100.00
35129;BME280;21301;43.626;10.580;2024-03-02T09:51:25;100934.88;;;15.18;100.00
35129;BME280;21301;43.626;10.580;2024-03-02T09:53:52;100925.81;;;15.68;100.00
35129;BME280;21301;43.626;10.580;2024-03-02T09:56:19;100924.34;;;16.21;100.00
35129;BME280;21301;43.626;10.580;2024-03-02T09:58:46;100934.34;;;16.36;100.00
35129;BME280;21301;43.626;10.580;2024-03-02T10:01:11;100929.53;;;16.22;100.00
35129;BME280;21301;43.626;10.580;2024-03-02T10:03:38;100932.66;;;15.70;100.00
35129;BME280;21301;43.626;10.580;2024-03-02T10:06:20;100928.38;;;15.50;100.00
35129;BME280;21301;43.626;10.580;2024-03-02T10:08:46;100933.41;;;15.43;100.00
35129;BME280;21301;43.626;10.580;2024-03-02T10:11:33;100930.00;;;14.94;100.00
35129;BME280;21301;43.626;10.580;2024-03-02T10:14:12;100940.16;;;15.18;100.00
35129;BME280;21301;43.626;10.580;2024-03-02T10:16:43;100938.50;;;14.98;100.00
35129;BME280;21301;43.626;10.580;2024-03-02T10:19:22;100945.38;;;14.50;100.00
35129;BME280;21301;43.626;10.580;2024-03-02T10:21:49;100946.47;;;13.97;100.00
35129;BME280;21301;43.626;10.580;2024-03-02T10:24:15;100954.28;;;13.68;100.00
35129;BME280;21301;43.626;10.580;2024-03-02T10:26:41;100957.06;;;13.97;100.00
35129;BME280;21301;43.626;10.580;2024-03-02T10:29:09;100962.41;;;14.07;100.00
35129;BME280;21301;43.626;10.580;2024-03-02T10:31:41;100948.91;;;14.51;100.00
35129;BME280;21301;43.626;10.580;2024-03-02T10:34:09;100951.84;;;15.45;100.00
35129;BME280;21301;43.626;10.580;2024-03-02T10:36:36;100952.16;;;15.03;100.00
35129;BME280;21301;43.626;10.580;2024-03-02T10:39:04;100953.84;;;15.13;100.00
35129;BME280;21301;43.626;10.580;2024-03-02T10:41:32;100957.03;;;15.17;100.00
35129;BME280;21301;43.626;10.580;2024-03-02T10:43:59;100959.25;;;15.12;100.00
35129;BME280;21301;43.626;10.580;2024-03-02T10:46:29;100962.72;;;15.42;100.00
35129;BME280;21301;43.626;10.580;2024-03-02T10:48:56;100975.03;;;14.84;100.00
35129;BME280;21301;43.626;10.580;2024-03-02T10:51:28;100973.31;;;14.74;100.00
35129;BME280;21301;43.626;10.580;2024-03-02T10:54:00;100969.06;;;14.52;100.00
35129;BME280;21301;43.626;10.580;2024-03-02T10:56:29;100970.19;;;14.09;100.00
35129;BME280;21301;43.626;10.580;2024-03-02T11:01:47;100962.47;;;13.44;100.00
35129;BME280;21301;43.626;10.580;2024-03-02T11:04:21;100968.59;;;13.24;100.00
35129;BME280;21301;43.626;10.580;2024-03-02T11:07:04;100963.53;;;13.32;100.00
35129;BME280;21301;43.626;10.580;2024-03-02T11:09:35;100957.19;;;13.23;100.00
35129;BME280;21301;43.626;10.580;2024-03-02T11:14:31;100964.78;;;13.16;100.00
35129;BME280;21301;43.626;10.580;2024-03-02T11:17:02;100961.38;;;12.93;100.00
35129;BME280;21301;43.626;10.580;2024-03-02T11:19:32;100961.56;;;12.81;100.00
35129;BME280;21301;43.626;10.580;2024-03-02T11:22:00;100964.66;;;12.86;100.00
35129;BME280;21301;43.626;10.580;2024-03-02T11:24:28;100965.19;;;13.00;100.00
35129;BME280;21301;43.626;10.580;2024-03-02T11:26:59;100958.19;;;12.78;100.00
35129;BME280;21301;43.626;10.580;2024-03-02T11:32:16;100966.13;;;12.67;100.00
35129;BME280;21301;43.626;10.580;2024-03-02T11:34:44;100953.22;;;12.64;100.00
35129;BME280;21301;43.626;10.580;2024-03-02T11:37:12;100958.03;;;12.59;100.00
35129;BME280;21301;43.626;10.580;2024-03-02T11:39:39;100948.00;;;12.30;100.00
35129;BME280;21301;43.626;10.580;2024-03-02T11:42:06;100958.81;;;12.27;100.00
35129;BME280;21301;43.626;10.580;2024-03-02T11:44:38;100965.63;;;12.19;100.00
35129;BME280;21301;43.626;10.580;2024-03-02T11:47:11;100951.97;;;12.13;100.00
35129;BME280;21301;43.626;10.580;2024-03-02T11:49:41;100957.34;;;12.34;100.00
35129;BME280;21301;43.626;10.580;2024-03-02T11:52:09;100944.56;;;12.62;100.00
35129;BME280;21301;43.626;10.580;2024-03-02T11:54:37;100938.00;;;12.89;100.00
35129;BME280;21301;43.626;10.580;2024-03-02T11:57:07;100940.94;;;13.07;100.00
35129;BME280;21301;43.626;10.580;2024-03-02T11:59:33;100952.38;;;12.96;100.00
35129;BME280;21301;43.626;10.580;2024-03-02T12:01:59;100945.38;;;13.06;100.00
35129;BME280;21301;43.626;10.580;2024-03-02T12:04:26;100951.56;;;13.28;100.00
35129;BME280;21301;43.626;10.580;2024-03-02T12:06:56;100948.06;;;13.48;100.00
35129;BME280;21301;43.626;10.580;2024-03-02T12:09:26;100958.81;;;13.56;100.00
35129;BME280;21301;43.626;10.580;2024-03-02T12:12:09;100946.41;;;13.47;100.00
35129;BME280;21301;43.626;10.580;2024-03-02T12:14:37;100943.59;;;13.49;100.00
35129;BME280;21301;43.626;10.580;2024-03-02T12:17:05;100939.69;;;13.64;100.00
35129;BME280;21301;43.626;10.580;2024-03-02T12:19:32;100937.59;;;13.98;100.00
35129;BME280;21301;43.626;10.580;2024-03-02T12:21:59;100940.97;;;13.49;100.00
35129;BME280;21301;43.626;10.580;2024-03-02T12:24:29;100936.22;;;13.42;100.00
35129;BME280;21301;43.626;10.580;2024-03-02T12:26:55;100928.97;;;13.24;100.00
35129;BME280;21301;43.626;10.580;2024-03-02T12:29:21;100935.72;;;13.28;100.00
35129;BME280;21301;43.626;10.580;2024-03-02T12:31:51;100939.03;;;13.30;100.00
35129;BME280;21301;43.626;10.580;2024-03-02T12:34:18;100936.50;;;13.49;100.00
35129;BME280;21301;43.626;10.580;2024-03-02T12:36:46;100925.81;;;13.72;100.00
35129;BME280;21301;43.626;10.580;2024-03-02T12:39:26;100933.47;;;13.75;100.00
35129;BME280;21301;43.626;10.580;2024-03-02T12:41:54;100923.72;;;13.75;100.00